createdAt,value
2019-05-26T00:00:49.115Z,4.80
2019-05-26T00:05:55.404Z,4.58
2019-05-26T00:11:01.700Z,5.40
2019-05-26T00:16:08.031Z,5.00
2019-05-26T00:21:14.323Z,5.80
2019-05-26T00:26:20.772Z,5.67
2019-05-26T00:31:26.947Z,4.92
2019-05-26T00:36:33.381Z,5.17
2019-05-26T00:41:40.047Z,5.28
2019-05-26T00:46:46.839Z,4.95
2019-05-26T00:51:53.269Z,5.47
2019-05-26T00:56:59.653Z,5.65
2019-05-26T01:02:06.542Z,5.53
2019-05-26T01:07:12.875Z,5.10
2019-05-26T01:12:20.364Z,4.42
2019-05-26T01:17:26.395Z,5.35
2019-05-26T01:22:33.056Z,5.20
2019-05-26T01:27:39.499Z,4.75
2019-05-26T01:32:45.633Z,5.03
2019-05-26T01:37:52.416Z,4.70
2019-05-26T01:42:58.636Z,5.47
2019-05-26T01:48:05.111Z,9.15
2019-05-26T01:53:11.654Z,9.93
2019-05-26T01:58:18.000Z,8.80
2019-05-26T02:03:24.271Z,6.10
2019-05-26T02:08:38.828Z,4.28
2019-05-26T02:13:38.617Z,4.60
2019-05-26T02:18:44.876Z,5.15
2019-05-26T02:23:51.228Z,5.10
2019-05-26T02:28:57.531Z,5.05
2019-05-26T02:34:03.764Z,4.80
2019-05-26T02:39:10.786Z,4.65
2019-05-26T02:44:17.186Z,4.70
2019-05-26T02:49:23.323Z,5.05
2019-05-26T02:54:29.483Z,5.25
2019-05-26T02:59:35.779Z,5.05
2019-05-26T03:04:42.491Z,5.33
2019-05-26T03:09:49.844Z,5.20
2019-05-26T03:14:57.164Z,5.00
2019-05-26T03:20:05.691Z,5.37
2019-05-26T03:25:21.156Z,6.22
2019-05-26T03:30:27.218Z,5.55
2019-05-26T03:35:33.544Z,5.85
2019-05-26T03:40:39.717Z,5.30
2019-05-26T03:46:17.822Z,6.53
2019-05-26T03:51:24.191Z,5.37
2019-05-26T03:56:30.405Z,5.30
2019-05-26T04:01:37.071Z,5.85
2019-05-26T04:06:43.478Z,5.20
2019-05-26T04:11:49.730Z,5.15
2019-05-26T04:16:58.806Z,5.45
2019-05-26T04:22:04.949Z,5.30
2019-05-26T04:27:11.272Z,5.90
2019-05-26T04:32:17.871Z,5.70
2019-05-26T04:37:24.718Z,5.72
2019-05-26T04:42:30.972Z,5.35
2019-05-26T04:47:37.390Z,5.65
2019-05-26T04:53:02.052Z,5.70
2019-05-26T04:57:51.777Z,5.90
2019-05-26T05:02:58.667Z,5.83
2019-05-26T05:08:04.921Z,6.05
2019-05-26T05:13:11.197Z,5.95
2019-05-26T05:18:17.517Z,6.10
2019-05-26T05:23:24.629Z,6.00
2019-05-26T05:28:31.188Z,6.40
2019-05-26T05:33:37.411Z,6.20
2019-05-26T05:38:43.768Z,6.05
2019-05-26T05:43:50.081Z,7.20
2019-05-26T05:48:56.211Z,6.58
2019-05-26T05:54:02.514Z,6.87
2019-05-26T05:59:08.800Z,5.90
2019-05-26T06:04:15.056Z,7.03
2019-05-26T06:09:21.375Z,6.67
2019-05-26T06:14:27.719Z,6.30
2019-05-26T06:19:34.109Z,6.58
2019-05-26T06:24:40.055Z,6.25
2019-05-26T06:29:58.344Z,5.97
2019-05-26T06:34:54.454Z,7.30
2019-05-26T06:40:02.072Z,6.20
2019-05-26T06:45:08.638Z,5.33
2019-05-26T06:50:15.411Z,5.03
2019-05-26T06:55:21.959Z,4.92
2019-05-26T07:00:28.433Z,4.25
2019-05-26T07:05:34.655Z,4.85
2019-05-26T07:10:41.388Z,4.22
2019-05-26T07:15:47.707Z,4.20
2019-05-26T07:20:54.043Z,3.90
2019-05-26T07:26:00.655Z,3.98
2019-05-26T07:31:06.871Z,3.80
2019-05-26T07:36:13.372Z,3.85
2019-05-26T07:41:20.109Z,3.47
2019-05-26T07:46:26.349Z,2.85
2019-05-26T07:51:32.694Z,2.50
2019-05-26T07:56:38.881Z,2.30
2019-05-26T08:01:45.205Z,2.58
2019-05-26T08:06:51.451Z,2.27
2019-05-26T08:11:58.028Z,2.35
2019-05-26T08:17:04.314Z,2.20
2019-05-26T08:22:10.701Z,2.00
2019-05-26T08:27:17.025Z,1.72
2019-05-26T08:32:23.344Z,2.00
2019-05-26T08:37:29.692Z,2.20
2019-05-26T08:42:44.067Z,1.90
2019-05-26T08:47:44.296Z,2.10
2019-05-26T08:52:50.456Z,2.33
2019-05-26T08:57:56.599Z,2.10
2019-05-26T09:03:03.168Z,1.80
2019-05-26T09:08:09.474Z,1.90
2019-05-26T09:13:15.793Z,2.10
2019-05-26T09:18:21.996Z,2.00
2019-05-26T09:23:28.366Z,1.98
2019-05-26T09:28:34.765Z,1.80
2019-05-26T09:33:41.031Z,1.80
2019-05-26T09:38:47.577Z,2.15
2019-05-26T09:43:54.027Z,1.87
2019-05-26T09:49:01.153Z,1.92
2019-05-26T09:54:07.514Z,1.77
2019-05-26T09:59:13.718Z,1.67
2019-05-26T10:04:20.054Z,1.80
2019-05-26T10:09:26.120Z,1.30
2019-05-26T10:14:32.406Z,1.60
2019-05-26T10:19:38.609Z,1.50
2019-05-26T10:24:44.982Z,1.55
2019-05-26T10:29:52.054Z,1.67
2019-05-26T10:34:58.118Z,1.47
2019-05-26T10:40:04.502Z,1.47
2019-05-26T10:45:11.446Z,1.40
2019-05-26T10:50:17.891Z,1.45
2019-05-26T10:55:24.270Z,1.40
2019-05-26T11:00:33.003Z,1.70
2019-05-26T11:05:38.582Z,1.30
2019-05-26T11:10:44.906Z,1.50
2019-05-26T11:15:50.948Z,1.75
2019-05-26T11:20:57.713Z,1.40
2019-05-26T11:26:04.585Z,1.75
2019-05-26T11:31:10.788Z,1.40
2019-05-26T11:36:16.963Z,1.30
2019-05-26T11:41:23.548Z,1.27
2019-05-26T11:46:29.627Z,1.50
2019-05-26T11:51:36.067Z,1.50
2019-05-26T11:56:42.223Z,1.20
2019-05-26T12:01:49.318Z,1.30
2019-05-26T12:06:54.098Z,1.60
2019-05-26T12:12:00.310Z,1.30
2019-05-26T12:17:06.900Z,1.32
2019-05-26T12:22:13.666Z,1.20
2019-05-26T12:27:20.204Z,1.32
2019-05-26T12:32:26.596Z,1.40
2019-05-26T12:37:32.815Z,1.42
2019-05-26T12:42:39.218Z,1.10
2019-05-26T12:47:45.418Z,1.50
2019-05-26T12:52:51.722Z,1.60
2019-05-26T12:57:59.352Z,1.30
2019-05-26T13:03:05.888Z,2.02
2019-05-26T13:08:12.222Z,1.80
2019-05-26T13:13:18.968Z,1.40
2019-05-26T13:18:29.127Z,1.25
2019-05-26T13:23:35.403Z,1.05
2019-05-26T13:28:41.559Z,1.20
2019-05-26T13:33:47.723Z,0.88
2019-05-26T13:38:54.051Z,0.80
2019-05-26T13:44:00.420Z,0.70
2019-05-26T13:49:06.759Z,0.90
2019-05-26T13:54:13.022Z,0.88
2019-05-26T13:59:19.561Z,1.00
2019-05-26T14:04:25.816Z,1.05
2019-05-26T14:09:32.087Z,1.00
2019-05-26T14:14:38.464Z,1.00
2019-05-26T14:19:47.983Z,0.68
2019-05-26T14:24:54.603Z,1.20
2019-05-26T14:30:01.092Z,2.37
2019-05-26T14:35:07.477Z,0.90
2019-05-26T14:40:13.741Z,0.90
2019-05-26T14:45:20.852Z,0.82
2019-05-26T14:50:27.198Z,0.88
2019-05-26T14:55:33.536Z,0.90
2019-05-26T15:00:40.009Z,0.98
2019-05-26T15:05:46.283Z,1.07
2019-05-26T15:10:52.594Z,0.80
2019-05-26T15:16:09.417Z,0.90
2019-05-26T15:21:06.772Z,0.90
2019-05-26T15:26:13.213Z,0.90
2019-05-26T15:31:19.700Z,1.17
2019-05-26T15:36:27.093Z,0.65
2019-05-26T15:41:33.341Z,0.98
2019-05-26T15:46:39.870Z,0.40
2019-05-26T15:51:46.452Z,0.88
2019-05-26T15:56:52.996Z,0.70
2019-05-26T16:01:59.347Z,0.90
2019-05-26T16:07:06.110Z,0.70
2019-05-26T16:12:12.369Z,0.68
2019-05-26T16:17:19.114Z,0.57
2019-05-26T16:22:25.441Z,0.60
2019-05-26T16:27:31.473Z,0.50
2019-05-26T16:32:37.849Z,0.50
2019-05-26T16:37:43.925Z,0.50
2019-05-26T16:42:50.621Z,1.00
2019-05-26T16:47:57.051Z,0.75
2019-05-26T16:53:03.798Z,1.07
2019-05-26T16:58:10.287Z,0.98
2019-05-26T17:03:16.661Z,1.30
2019-05-26T17:08:22.841Z,1.20
2019-05-26T17:13:32.862Z,1.85
2019-05-26T17:18:37.368Z,1.15
2019-05-26T17:23:43.717Z,1.32
2019-05-26T17:28:50.443Z,1.30
2019-05-26T17:33:56.574Z,1.65
2019-05-26T17:39:02.992Z,1.32
2019-05-26T17:44:09.314Z,1.30
2019-05-26T17:49:16.127Z,1.62
2019-05-26T17:54:22.614Z,1.55
2019-05-26T17:59:28.929Z,1.60
2019-05-26T18:04:35.098Z,1.32
2019-05-26T18:09:44.552Z,1.60
2019-05-26T18:14:49.646Z,1.50
2019-05-26T18:19:55.643Z,1.17
2019-05-26T18:25:01.914Z,1.10
2019-05-26T18:30:09.305Z,1.00
2019-05-26T18:35:15.713Z,1.00
2019-05-26T18:40:22.195Z,1.80
2019-05-26T18:45:29.773Z,1.05
2019-05-26T18:50:36.147Z,1.57
2019-05-26T18:55:42.436Z,1.20
2019-05-26T19:00:49.816Z,1.12
2019-05-26T19:05:56.226Z,1.00
2019-05-26T19:11:02.410Z,0.90
2019-05-26T19:16:09.011Z,1.17
2019-05-26T19:21:15.257Z,0.72
2019-05-26T19:26:21.534Z,0.70
2019-05-26T19:31:27.805Z,0.60
2019-05-26T19:36:33.904Z,0.60
2019-05-26T19:41:40.504Z,0.62
2019-05-26T19:46:47.348Z,0.70
2019-05-26T19:51:53.618Z,1.00
2019-05-26T19:56:59.898Z,0.62
2019-05-26T20:02:17.750Z,0.78
2019-05-26T20:07:15.347Z,0.85
2019-05-26T20:12:21.659Z,0.62
2019-05-26T20:17:28.140Z,0.88
2019-05-26T20:22:34.594Z,0.98
2019-05-26T20:27:40.855Z,0.60
2019-05-26T20:32:47.270Z,0.60
2019-05-26T20:37:53.365Z,0.70
2019-05-26T20:42:59.732Z,0.70
2019-05-26T20:48:05.994Z,0.70
2019-05-26T20:53:12.283Z,0.70
2019-05-26T20:58:18.836Z,0.60
2019-05-26T21:03:25.130Z,0.60
2019-05-26T21:08:31.572Z,0.55
2019-05-26T21:13:37.750Z,0.68
2019-05-26T21:18:43.987Z,0.70
2019-05-26T21:23:50.562Z,1.12
2019-05-26T21:28:57.477Z,0.88
2019-05-26T21:34:03.820Z,0.80
2019-05-26T21:39:10.519Z,0.90
2019-05-26T21:44:16.906Z,0.88
2019-05-26T21:49:23.045Z,0.88
2019-05-26T21:54:29.389Z,1.00
2019-05-26T21:59:35.655Z,1.42
2019-05-26T22:04:42.174Z,1.30
2019-05-26T22:09:48.341Z,1.22
2019-05-26T22:14:54.471Z,1.30
2019-05-26T22:20:00.543Z,1.27
2019-05-26T22:25:06.659Z,1.25
2019-05-26T22:30:12.939Z,1.35
2019-05-26T22:35:19.212Z,1.30
2019-05-26T22:40:25.377Z,1.02
2019-05-26T22:45:31.673Z,1.25
2019-05-26T22:50:37.633Z,1.12
2019-05-26T22:55:43.926Z,1.10
2019-05-26T23:00:50.259Z,1.17
2019-05-26T23:05:56.447Z,1.20
2019-05-26T23:11:02.999Z,1.40
2019-05-26T23:16:10.744Z,1.15
2019-05-26T23:21:16.923Z,1.32
2019-05-26T23:26:23.651Z,1.52
2019-05-26T23:31:29.666Z,1.30
2019-05-26T23:36:36.054Z,1.50
2019-05-26T23:41:42.433Z,1.57
2019-05-26T23:46:48.647Z,1.60
2019-05-26T23:51:54.970Z,1.57
2019-05-26T23:57:01.455Z,1.70
